createdAt,value
2018-08-14T00:00:10.350Z,10.60
2018-08-14T00:02:38.855Z,8.90
2018-08-14T00:05:08.855Z,10.10
2018-08-14T00:07:37.646Z,11.10
2018-08-14T00:10:07.549Z,10.57
2018-08-14T00:12:36.407Z,10.97
2018-08-14T00:15:08.109Z,10.87
2018-08-14T00:17:36.608Z,9.10
2018-08-14T00:20:06.446Z,12.87
2018-08-14T00:22:35.522Z,11.40
2018-08-14T00:25:05.554Z,13.10
2018-08-14T00:27:34.046Z,10.57
2018-08-14T00:30:02.797Z,10.63
2018-08-14T00:32:31.417Z,10.30
2018-08-14T00:34:59.923Z,13.27
2018-08-14T00:37:28.494Z,10.20
2018-08-14T00:39:57.118Z,11.13
2018-08-14T00:42:25.868Z,12.40
2018-08-14T00:44:54.386Z,12.30
2018-08-14T00:47:22.905Z,12.27
2018-08-14T00:49:51.430Z,15.07
2018-08-14T00:52:19.934Z,12.50
2018-08-14T00:54:48.458Z,12.77
2018-08-14T00:57:17.006Z,10.23
2018-08-14T00:59:45.533Z,10.90
2018-08-14T01:02:14.052Z,9.13
2018-08-14T01:04:42.550Z,8.23
2018-08-14T01:07:11.051Z,10.50
2018-08-14T01:09:40.130Z,9.90
2018-08-14T01:12:08.633Z,10.30
2018-08-14T01:14:37.166Z,12.17
2018-08-14T01:17:05.730Z,12.97
2018-08-14T01:19:34.259Z,13.20
2018-08-14T01:22:02.916Z,11.63
2018-08-14T01:24:31.427Z,9.53
2018-08-14T01:26:59.954Z,10.90
2018-08-14T01:29:28.581Z,11.47
2018-08-14T01:31:57.120Z,9.47
2018-08-14T01:34:25.743Z,10.77
2018-08-14T01:36:54.308Z,12.80
2018-08-14T01:39:22.796Z,11.40
2018-08-14T01:41:51.331Z,13.93
2018-08-14T01:44:20.716Z,10.83
2018-08-14T01:46:49.299Z,13.90
2018-08-14T01:49:17.801Z,14.53
2018-08-14T01:51:46.330Z,15.60
2018-08-14T01:54:14.836Z,14.90
2018-08-14T01:56:43.334Z,13.40
2018-08-14T01:59:11.813Z,14.03
2018-08-14T02:01:40.336Z,13.00
2018-08-14T02:04:08.833Z,15.80
2018-08-14T02:06:37.369Z,15.03
2018-08-14T02:09:08.363Z,12.40
2018-08-14T02:11:36.904Z,13.07
2018-08-14T02:14:05.513Z,13.30
2018-08-14T02:16:34.027Z,14.97
2018-08-14T02:19:02.560Z,13.20
2018-08-14T02:21:31.064Z,19.17
2018-08-14T02:23:59.571Z,14.30
2018-08-14T02:26:28.082Z,18.50
2018-08-14T02:28:56.612Z,16.40
2018-08-14T02:31:25.145Z,16.90
2018-08-14T02:33:53.977Z,17.50
2018-08-14T02:36:22.539Z,20.57
2018-08-14T02:38:51.010Z,17.70
2018-08-14T02:41:19.584Z,18.67
2018-08-14T02:43:48.091Z,21.57
2018-08-14T02:46:16.626Z,17.87
2018-08-14T02:48:45.117Z,21.87
2018-08-14T02:51:14.132Z,22.77
2018-08-14T02:53:42.675Z,19.97
2018-08-14T02:56:11.249Z,21.33
2018-08-14T02:58:39.907Z,23.90
2018-08-14T03:01:08.480Z,21.53
2018-08-14T03:03:37.959Z,27.17
2018-08-14T03:06:06.464Z,22.50
2018-08-14T03:08:34.942Z,22.87
2018-08-14T03:11:03.637Z,20.80
2018-08-14T03:13:32.105Z,26.17
2018-08-14T03:16:00.595Z,27.13
2018-08-14T03:18:29.091Z,22.33
2018-08-14T03:20:57.647Z,26.03
2018-08-14T03:23:29.071Z,27.33
2018-08-14T03:28:24.237Z,24.50
2018-08-14T03:30:52.687Z,26.70
2018-08-14T03:33:21.128Z,28.83
2018-08-14T03:35:49.550Z,28.33
2018-08-14T03:38:18.060Z,29.07
2018-08-14T03:40:46.488Z,25.83
2018-08-14T03:43:14.912Z,31.23
2018-08-14T03:45:43.404Z,29.87
2018-08-14T03:48:11.921Z,26.50
2018-08-14T03:50:40.342Z,27.47
2018-08-14T03:53:09.116Z,27.07
2018-08-14T03:55:37.743Z,27.70
2018-08-14T03:58:06.211Z,25.37
2018-08-14T04:00:34.625Z,29.07
2018-08-14T04:03:03.148Z,23.47
2018-08-14T04:05:31.562Z,26.50
2018-08-14T04:08:00.000Z,25.73
2018-08-14T04:10:28.450Z,26.23
2018-08-14T04:12:56.878Z,32.27
2018-08-14T04:15:25.387Z,27.63
2018-08-14T04:18:07.051Z,24.50
2018-08-14T04:20:35.869Z,27.73
2018-08-14T04:23:04.570Z,25.83
2018-08-14T04:25:33.006Z,23.57
2018-08-14T04:28:01.472Z,24.80
2018-08-14T04:30:29.892Z,26.67
2018-08-14T04:32:58.337Z,30.23
2018-08-14T04:35:26.762Z,23.80
2018-08-14T04:37:55.205Z,28.90
2018-08-14T04:40:23.621Z,28.13
2018-08-14T04:42:52.061Z,28.07
2018-08-14T04:45:20.527Z,29.10
2018-08-14T04:47:48.959Z,28.10
2018-08-14T04:50:17.389Z,26.70
2018-08-14T04:52:45.841Z,28.37
2018-08-14T04:55:14.299Z,27.47
2018-08-14T04:57:42.959Z,27.83
2018-08-14T05:00:14.402Z,28.40
2018-08-14T05:02:43.310Z,27.67
2018-08-14T05:05:12.683Z,25.60
2018-08-14T05:07:41.124Z,26.97
2018-08-14T05:10:10.973Z,29.20
2018-08-14T05:12:39.791Z,31.90
2018-08-14T05:15:08.873Z,25.27
2018-08-14T05:17:37.334Z,27.90
2018-08-14T05:20:07.094Z,28.70
2018-08-14T05:22:35.550Z,29.13
2018-08-14T05:25:04.168Z,27.13
2018-08-14T05:27:32.597Z,28.23
2018-08-14T05:30:01.091Z,25.23
2018-08-14T05:32:29.525Z,27.33
2018-08-14T05:34:57.929Z,28.60
2018-08-14T05:37:26.455Z,31.77
2018-08-14T05:39:55.349Z,28.67
2018-08-14T05:42:23.933Z,29.97
2018-08-14T05:44:52.832Z,29.47
2018-08-14T05:47:21.305Z,32.97
2018-08-14T05:49:49.724Z,29.30
2018-08-14T05:52:18.654Z,32.07
2018-08-14T05:54:47.176Z,28.00
2018-08-14T05:57:15.633Z,28.73
2018-08-14T05:59:44.057Z,26.00
2018-08-14T06:02:13.456Z,27.07
2018-08-14T06:04:41.900Z,29.03
2018-08-14T06:07:10.364Z,27.57
2018-08-14T06:09:39.270Z,27.00
2018-08-14T06:12:07.856Z,30.73
2018-08-14T06:14:36.281Z,26.60
2018-08-14T06:17:04.852Z,27.80
2018-08-14T06:19:33.203Z,22.07
2018-08-14T06:22:01.765Z,26.83
2018-08-14T06:24:30.184Z,24.57
2018-08-14T06:26:58.597Z,25.20
2018-08-14T06:29:27.028Z,27.77
2018-08-14T06:31:55.483Z,27.93
2018-08-14T06:34:23.950Z,29.03
2018-08-14T06:36:52.332Z,29.10
2018-08-14T06:39:20.793Z,27.97
2018-08-14T06:41:49.217Z,28.80
2018-08-14T06:44:17.669Z,30.00
2018-08-14T06:46:46.112Z,26.20
2018-08-14T06:49:14.568Z,26.33
2018-08-14T06:51:42.963Z,26.73
2018-08-14T06:54:11.472Z,27.47
2018-08-14T06:56:39.893Z,24.37
2018-08-14T06:59:08.460Z,26.07
2018-08-14T07:01:36.925Z,28.33
2018-08-14T07:04:05.354Z,27.83
2018-08-14T07:06:33.809Z,27.83
2018-08-14T07:09:02.380Z,28.07
2018-08-14T07:11:30.777Z,31.17
2018-08-14T07:13:59.282Z,27.30
2018-08-14T07:16:27.768Z,28.90
2018-08-14T07:18:56.218Z,25.50
2018-08-14T07:21:24.687Z,27.70
2018-08-14T07:23:53.178Z,30.43
2018-08-14T07:26:21.626Z,31.13
2018-08-14T07:28:50.080Z,27.57
2018-08-14T07:31:18.582Z,32.20
2018-08-14T07:33:47.130Z,29.43
2018-08-14T07:36:15.598Z,27.90
2018-08-14T07:38:44.099Z,30.03
2018-08-14T07:41:12.579Z,26.20
2018-08-14T07:43:42.018Z,26.30
2018-08-14T07:46:10.511Z,24.90
2018-08-14T07:48:38.945Z,21.83
2018-08-14T07:51:07.407Z,21.40
2018-08-14T07:53:35.898Z,23.10
2018-08-14T07:56:04.357Z,22.60
2018-08-14T07:58:32.826Z,21.63
2018-08-14T08:01:01.965Z,21.03
2018-08-14T08:03:30.427Z,25.33
2018-08-14T08:05:58.880Z,19.90
2018-08-14T08:08:28.145Z,21.63
2018-08-14T08:10:56.582Z,22.63
2018-08-14T08:13:25.038Z,20.07
2018-08-14T08:15:53.569Z,21.07
2018-08-14T08:18:22.123Z,19.40
2018-08-14T08:20:50.578Z,21.70
2018-08-14T08:23:19.110Z,23.30
2018-08-14T08:25:47.668Z,24.37
2018-08-14T08:28:16.188Z,24.60
2018-08-14T08:30:44.689Z,27.23
2018-08-14T08:33:13.260Z,24.27
2018-08-14T08:35:41.762Z,28.87
2018-08-14T08:38:10.236Z,31.20
2018-08-14T08:40:38.709Z,29.07
2018-08-14T08:43:07.197Z,29.60
2018-08-14T08:45:35.672Z,35.50
2018-08-14T08:48:17.582Z,34.37
2018-08-14T08:50:46.322Z,39.77
2018-08-14T08:53:16.038Z,34.80
2018-08-14T08:55:44.551Z,31.50
2018-08-14T08:58:13.074Z,33.13
2018-08-14T09:00:41.590Z,31.90
2018-08-14T09:03:10.193Z,26.60
2018-08-14T09:05:38.705Z,30.53
2018-08-14T09:08:09.620Z,30.57
2018-08-14T09:10:38.207Z,25.83
2018-08-14T09:13:07.707Z,26.77
2018-08-14T09:15:37.134Z,31.07
2018-08-14T09:18:05.633Z,31.63
2018-08-14T09:20:34.236Z,31.63
2018-08-14T09:23:02.763Z,32.63
2018-08-14T09:25:31.313Z,31.53
2018-08-14T09:28:00.810Z,27.70
2018-08-14T09:30:29.290Z,26.97
2018-08-14T09:32:57.738Z,31.33
2018-08-14T09:35:26.289Z,31.20
2018-08-14T09:37:54.744Z,27.10
2018-08-14T09:40:23.226Z,27.27
2018-08-14T09:42:53.542Z,25.10
2018-08-14T09:45:22.521Z,21.87
2018-08-14T09:47:51.097Z,18.83
2018-08-14T09:50:22.107Z,20.50
2018-08-14T09:52:50.927Z,18.73
2018-08-14T09:55:20.430Z,16.20
2018-08-14T09:57:50.577Z,14.97
2018-08-14T10:00:27.328Z,14.63
2018-08-14T10:03:01.551Z,13.33
2018-08-14T10:05:35.666Z,12.50
2018-08-14T10:08:13.071Z,14.70
2018-08-14T10:10:41.866Z,13.10
2018-08-14T10:13:11.864Z,14.70
2018-08-14T10:15:41.890Z,10.67
2018-08-14T10:18:25.287Z,12.60
2018-08-14T10:20:54.144Z,11.93
2018-08-14T10:23:22.972Z,14.27
2018-08-14T10:25:51.679Z,10.93
2018-08-14T10:28:22.532Z,10.53
2018-08-14T10:30:51.271Z,11.27
2018-08-14T10:33:19.914Z,14.27
2018-08-14T10:35:48.553Z,12.50
2018-08-14T10:38:17.206Z,12.63
2018-08-14T10:40:45.812Z,9.87
2018-08-14T10:43:14.531Z,10.10
2018-08-14T10:45:43.150Z,9.70
2018-08-14T10:48:11.827Z,13.80
2018-08-14T10:50:40.490Z,9.50
2018-08-14T10:53:09.182Z,10.80
2018-08-14T10:55:37.781Z,12.50
2018-08-14T10:58:06.495Z,9.87
2018-08-14T11:00:35.126Z,10.13
2018-08-14T11:03:03.965Z,10.67
2018-08-14T11:05:32.594Z,10.80
2018-08-14T11:08:01.253Z,10.53
2018-08-14T11:10:34.130Z,9.80
2018-08-14T11:13:02.767Z,15.07
2018-08-14T11:15:31.494Z,8.13
2018-08-14T11:18:00.138Z,10.13
2018-08-14T11:20:28.743Z,7.30
2018-08-14T11:22:57.588Z,7.00
2018-08-14T11:25:26.216Z,9.50
2018-08-14T11:27:54.944Z,6.70
2018-08-14T11:30:25.080Z,7.10
2018-08-14T11:32:53.999Z,4.77
2018-08-14T11:35:23.413Z,6.20
2018-08-14T11:37:52.424Z,7.83
2018-08-14T11:40:21.050Z,4.50
2018-08-14T11:42:49.714Z,6.53
2018-08-14T11:45:23.023Z,6.10
2018-08-14T11:47:51.718Z,7.60
2018-08-14T11:50:20.999Z,7.77
2018-08-14T11:52:51.423Z,5.50
2018-08-14T11:55:20.866Z,5.90
2018-08-14T11:57:50.384Z,7.80
2018-08-14T12:00:20.265Z,8.80
2018-08-14T12:02:49.212Z,10.60
2018-08-14T12:05:17.944Z,6.80
2018-08-14T12:07:46.623Z,8.73
2018-08-14T12:10:16.447Z,8.10
2018-08-14T12:12:45.116Z,5.67
2018-08-14T12:15:14.799Z,7.77
2018-08-14T12:17:44.583Z,8.47
2018-08-14T12:20:18.655Z,8.60
2018-08-14T12:22:47.302Z,6.47
2018-08-14T12:25:17.187Z,5.80
2018-08-14T12:27:46.515Z,7.43
2018-08-14T12:30:19.250Z,6.83
2018-08-14T12:32:48.466Z,7.47
2018-08-14T12:35:17.203Z,8.70
2018-08-14T12:37:45.832Z,8.53
2018-08-14T12:40:15.059Z,5.90
2018-08-14T12:42:43.676Z,8.00
2018-08-14T12:45:22.067Z,3.50
2018-08-14T12:47:52.069Z,4.70
2018-08-14T12:50:21.548Z,6.37
2018-08-14T12:52:50.290Z,5.13
2018-08-14T12:55:19.218Z,7.10
2018-08-14T12:57:48.297Z,5.90
2018-08-14T13:00:21.160Z,7.37
2018-08-14T13:02:50.137Z,8.03
2018-08-14T13:05:18.625Z,7.00
2018-08-14T13:07:47.077Z,4.83
2018-08-14T13:10:15.532Z,6.47
2018-08-14T13:12:43.986Z,5.63
2018-08-14T13:15:13.575Z,9.77
2018-08-14T13:17:43.269Z,12.97
2018-08-14T13:20:13.002Z,10.50
2018-08-14T13:22:41.522Z,11.03
2018-08-14T13:25:11.037Z,11.30
2018-08-14T13:27:39.484Z,7.83
2018-08-14T13:30:10.879Z,10.73
2018-08-14T13:32:39.390Z,7.33
2018-08-14T13:35:07.853Z,9.17
2018-08-14T13:37:36.320Z,10.40
2018-08-14T13:40:05.693Z,10.23
2018-08-14T13:42:34.168Z,8.23
2018-08-14T13:45:03.562Z,9.03
2018-08-14T13:47:32.044Z,10.50
2018-08-14T13:50:00.545Z,9.10
2018-08-14T13:52:28.992Z,6.13
2018-08-14T13:54:57.513Z,8.23
2018-08-14T13:57:25.957Z,20.43
2018-08-14T13:59:54.414Z,6.47
2018-08-14T14:02:22.886Z,7.27
2018-08-14T14:04:51.373Z,7.27
2018-08-14T14:07:19.842Z,4.20
2018-08-14T14:09:48.308Z,5.97
2018-08-14T14:12:16.768Z,8.73
2018-08-14T14:14:45.287Z,6.47
2018-08-14T14:17:13.781Z,5.37
2018-08-14T14:19:42.263Z,6.27
2018-08-14T14:22:10.719Z,5.60
2018-08-14T14:24:40.093Z,12.87
2018-08-14T14:27:08.538Z,10.23
2018-08-14T14:29:37.013Z,7.57
2018-08-14T14:32:05.617Z,7.20
2018-08-14T14:34:34.085Z,8.43
2018-08-14T14:37:02.559Z,8.40
2018-08-14T14:39:31.101Z,5.03
2018-08-14T14:41:59.649Z,8.00
2018-08-14T14:44:28.156Z,9.90
2018-08-14T14:46:56.600Z,5.00
2018-08-14T14:49:25.990Z,9.73
2018-08-14T14:51:54.426Z,9.10
2018-08-14T14:54:22.894Z,8.47
2018-08-14T14:56:51.344Z,8.77
2018-08-14T14:59:19.830Z,6.10
2018-08-14T15:01:48.329Z,9.43
2018-08-14T15:04:16.774Z,5.67
2018-08-14T15:06:45.282Z,4.73
2018-08-14T15:09:14.124Z,4.87
2018-08-14T15:11:42.642Z,5.97
2018-08-14T15:14:11.109Z,6.23
2018-08-14T15:16:39.620Z,5.90
2018-08-14T15:19:16.794Z,4.20
2018-08-14T15:21:45.241Z,8.33
2018-08-14T15:24:13.765Z,9.03
2018-08-14T15:26:42.851Z,13.70
2018-08-14T15:29:14.441Z,5.30
2018-08-14T15:31:46.382Z,10.70
2018-08-14T15:34:16.056Z,10.73
2018-08-14T15:36:47.006Z,7.40
2018-08-14T15:39:16.725Z,7.53
2018-08-14T15:41:45.229Z,16.03
2018-08-14T15:44:13.790Z,8.53
2018-08-14T15:46:42.297Z,11.63
2018-08-14T15:49:11.217Z,8.30
2018-08-14T15:51:39.910Z,8.53
2018-08-14T15:54:10.040Z,4.93
2018-08-14T15:56:38.621Z,5.73
2018-08-14T15:59:07.162Z,7.33
2018-08-14T16:01:36.056Z,10.40
2018-08-14T16:04:05.115Z,13.47
2018-08-14T16:06:33.603Z,14.47
2018-08-14T16:09:02.045Z,12.80
2018-08-14T16:11:30.509Z,9.70
2018-08-14T16:13:59.224Z,5.00
2018-08-14T16:16:28.118Z,5.03
2018-08-14T16:18:56.650Z,10.87
2018-08-14T16:21:25.183Z,6.40
2018-08-14T16:23:53.622Z,8.27
2018-08-14T16:26:22.125Z,7.60
2018-08-14T16:28:50.614Z,9.00
2018-08-14T16:31:19.111Z,10.57
2018-08-14T16:33:47.552Z,6.13
2018-08-14T16:36:16.055Z,9.27
2018-08-14T16:38:44.543Z,7.03
2018-08-14T16:41:13.022Z,5.67
2018-08-14T16:43:41.532Z,5.27
2018-08-14T16:46:09.988Z,13.17
2018-08-14T16:48:38.429Z,7.23
2018-08-14T16:51:06.968Z,5.37
2018-08-14T16:53:35.544Z,18.80
2018-08-14T16:56:04.002Z,7.53
2018-08-14T16:58:33.477Z,13.50
2018-08-14T17:01:01.989Z,10.10
2018-08-14T17:03:30.558Z,11.30
2018-08-14T17:06:00.790Z,13.60
2018-08-14T17:08:35.010Z,5.83
2018-08-14T17:11:03.469Z,8.83
2018-08-14T17:13:34.305Z,15.23
2018-08-14T17:16:02.909Z,5.53
2018-08-14T17:18:31.354Z,4.73
2018-08-14T17:20:58.759Z,8.90
2018-08-14T17:23:27.197Z,5.87
2018-08-14T17:25:55.665Z,5.93
2018-08-14T17:28:24.098Z,6.13
2018-08-14T17:30:52.581Z,5.60
2018-08-14T17:33:21.095Z,6.80
2018-08-14T17:35:49.610Z,5.50
2018-08-14T17:38:18.221Z,12.13
2018-08-14T17:40:46.690Z,7.43
2018-08-14T17:43:15.274Z,5.10
2018-08-14T17:45:43.727Z,8.97
2018-08-14T17:48:12.207Z,8.53
2018-08-14T17:50:40.645Z,7.30
2018-08-14T17:53:09.121Z,6.10
2018-08-14T17:55:37.683Z,5.60
2018-08-14T17:58:06.507Z,7.23
2018-08-14T18:00:35.016Z,9.70
2018-08-14T18:03:09.376Z,7.73
2018-08-14T18:05:37.917Z,13.77
2018-08-14T18:08:07.741Z,7.17
2018-08-14T18:10:36.375Z,9.50
2018-08-14T18:13:05.218Z,7.60
2018-08-14T18:15:33.685Z,6.67
2018-08-14T18:18:02.175Z,4.33
2018-08-14T18:20:30.627Z,6.30
2018-08-14T18:22:59.094Z,9.10
2018-08-14T18:25:27.563Z,6.47
2018-08-14T18:27:56.029Z,14.30
2018-08-14T18:30:24.514Z,6.83
2018-08-14T18:32:53.740Z,7.60
2018-08-14T18:35:22.201Z,9.77
2018-08-14T18:37:50.923Z,7.03
2018-08-14T18:40:20.669Z,8.17
2018-08-14T18:42:49.411Z,7.77
2018-08-14T18:45:19.586Z,6.50
2018-08-14T18:47:48.090Z,4.50
2018-08-14T18:50:17.276Z,10.97
2018-08-14T18:52:45.891Z,7.93
2018-08-14T18:55:15.666Z,5.90
2018-08-14T18:57:45.200Z,9.30
2018-08-14T19:00:25.493Z,5.70
2018-08-14T19:02:55.179Z,10.37
2018-08-14T19:05:24.030Z,9.03
2018-08-14T19:07:52.505Z,9.50
2018-08-14T19:10:22.450Z,7.80
2018-08-14T19:12:51.742Z,6.40
2018-08-14T19:15:24.951Z,5.80
2018-08-14T19:17:55.075Z,3.93
2018-08-14T19:20:23.535Z,7.40
2018-08-14T19:22:52.001Z,5.77
2018-08-14T19:25:20.498Z,4.60
2018-08-14T19:27:48.961Z,5.17
2018-08-14T19:30:17.412Z,4.87
2018-08-14T19:32:45.880Z,12.40
2018-08-14T19:35:15.445Z,6.80
2018-08-14T19:37:43.921Z,8.53
2018-08-14T19:40:20.501Z,7.47
2018-08-14T19:42:49.378Z,7.60
2018-08-14T19:45:17.919Z,5.70
2018-08-14T19:47:46.455Z,8.07
2018-08-14T19:50:17.190Z,4.30
2018-08-14T19:52:45.718Z,9.87
2018-08-14T19:55:18.114Z,8.10
2018-08-14T19:57:48.089Z,7.50
2018-08-14T20:00:20.988Z,5.23
2018-08-14T20:02:50.202Z,12.70
2018-08-14T20:05:18.583Z,9.30
2018-08-14T20:07:47.158Z,6.63
2018-08-14T20:10:15.689Z,5.07
2018-08-14T20:12:44.204Z,10.10
2018-08-14T20:15:15.114Z,8.70
2018-08-14T20:17:43.738Z,5.63
2018-08-14T20:20:14.430Z,8.63
2018-08-14T20:22:42.991Z,4.87
2018-08-14T20:25:11.609Z,5.90
2018-08-14T20:27:40.116Z,6.20
2018-08-14T20:30:13.782Z,5.30
2018-08-14T20:32:42.190Z,12.10
2018-08-14T20:35:12.611Z,5.40
2018-08-14T20:37:41.168Z,12.50
2018-08-14T20:40:12.656Z,5.97
2018-08-14T20:42:41.105Z,9.70
2018-08-14T20:45:11.062Z,16.40
2018-08-14T20:47:39.519Z,5.73
2018-08-14T20:50:10.519Z,8.60
2018-08-14T20:52:39.434Z,11.57
2018-08-14T20:55:09.686Z,4.80
2018-08-14T20:57:39.050Z,5.97
2018-08-14T21:00:07.588Z,8.17
2018-08-14T21:02:36.203Z,6.57
2018-08-14T21:05:05.653Z,8.07
2018-08-14T21:07:34.126Z,8.00
2018-08-14T21:10:02.606Z,8.40
2018-08-14T21:12:36.415Z,7.53
2018-08-14T21:15:06.073Z,10.80
2018-08-14T21:17:34.566Z,7.00
2018-08-14T21:20:03.262Z,6.67
2018-08-14T21:22:31.757Z,8.73
2018-08-14T21:25:00.221Z,6.63
2018-08-14T21:27:28.752Z,6.17
2018-08-14T21:29:57.264Z,5.17
2018-08-14T21:32:26.508Z,7.80
2018-08-14T21:34:55.586Z,9.00
2018-08-14T21:37:24.046Z,5.23
2018-08-14T21:39:52.529Z,7.30
2018-08-14T21:42:20.993Z,5.40
2018-08-14T21:44:49.538Z,9.60
2018-08-14T21:47:18.071Z,6.83
2018-08-14T21:49:46.542Z,7.50
2018-08-14T21:52:15.030Z,9.53
2018-08-14T21:54:43.490Z,4.87
2018-08-14T21:57:11.950Z,7.90
2018-08-14T21:59:40.414Z,6.83
2018-08-14T22:02:08.958Z,8.37
2018-08-14T22:04:37.529Z,7.03
2018-08-14T22:07:06.056Z,9.70
2018-08-14T22:09:34.536Z,8.00
2018-08-14T22:12:03.034Z,8.13
2018-08-14T22:14:31.586Z,7.73
2018-08-14T22:17:00.043Z,7.60
2018-08-14T22:19:29.053Z,5.87
2018-08-14T22:21:57.539Z,7.27
2018-08-14T22:24:26.026Z,5.33
2018-08-14T22:26:54.508Z,10.43
2018-08-14T22:29:23.041Z,10.80
2018-08-14T22:31:51.519Z,6.10
2018-08-14T22:34:20.024Z,7.33
2018-08-14T22:36:49.201Z,6.90
2018-08-14T22:39:17.665Z,10.87
2018-08-14T22:41:46.195Z,14.67
2018-08-14T22:44:14.682Z,7.20
2018-08-14T22:46:43.153Z,9.60
2018-08-14T22:49:11.642Z,9.83
2018-08-14T22:51:40.159Z,6.73
2018-08-14T22:54:08.649Z,7.77
2018-08-14T22:56:37.144Z,5.80
2018-08-14T22:59:05.606Z,6.90
2018-08-14T23:01:34.115Z,7.87
2018-08-14T23:04:02.629Z,7.17
2018-08-14T23:06:31.125Z,9.00
2018-08-14T23:08:59.662Z,4.20
2018-08-14T23:11:28.133Z,5.63
2018-08-14T23:13:56.647Z,7.37
2018-08-14T23:16:25.145Z,10.40
2018-08-14T23:18:53.752Z,12.10
2018-08-14T23:21:22.251Z,6.27
2018-08-14T23:23:50.748Z,7.73
2018-08-14T23:26:19.327Z,5.90
2018-08-14T23:28:47.705Z,7.43
2018-08-14T23:31:16.176Z,5.63
2018-08-14T23:33:44.692Z,6.80
2018-08-14T23:36:13.189Z,9.07
2018-08-14T23:38:41.649Z,7.13
2018-08-14T23:41:10.128Z,9.43
2018-08-14T23:43:38.727Z,7.97
2018-08-14T23:46:07.207Z,4.93
2018-08-14T23:48:35.644Z,9.27
2018-08-14T23:51:04.162Z,8.97
2018-08-14T23:53:32.747Z,10.87
2018-08-14T23:56:01.209Z,6.93
2018-08-14T23:58:29.695Z,11.17
